createdAt,value
2019-04-10T00:00:45.832Z,9.69
2019-04-10T00:01:44.688Z,9.69
2019-04-10T00:02:45.732Z,9.69
2019-04-10T00:03:44.549Z,9.69
2019-04-10T00:04:45.306Z,9.68
2019-04-10T00:05:44.611Z,9.72
2019-04-10T00:06:44.531Z,9.68
2019-04-10T00:07:44.512Z,9.66
2019-04-10T00:08:44.504Z,9.68
2019-04-10T00:09:45.522Z,9.69
2019-04-10T00:10:44.518Z,9.68
2019-04-10T00:11:45.124Z,9.66
2019-04-10T00:12:45.403Z,9.72
2019-04-10T00:13:44.932Z,9.69
2019-04-10T00:14:44.987Z,9.72
2019-04-10T00:15:44.500Z,9.59
2019-04-10T00:16:44.604Z,9.56
2019-04-10T00:17:45.066Z,9.55
2019-04-10T00:18:44.465Z,9.61
2019-04-10T00:19:45.577Z,9.58
2019-04-10T00:20:44.861Z,9.56
2019-04-10T00:21:45.223Z,9.43
2019-04-10T00:22:44.534Z,9.46
2019-04-10T00:23:44.470Z,9.51
2019-04-10T00:24:44.436Z,9.46
2019-04-10T00:25:45.351Z,9.48
2019-04-10T00:26:44.440Z,9.47
2019-04-10T00:27:45.111Z,9.51
2019-04-10T00:28:44.518Z,9.46
2019-04-10T00:29:44.688Z,9.56
2019-04-10T00:30:45.072Z,9.56
2019-04-10T00:31:44.554Z,9.46
2019-04-10T00:32:44.402Z,9.44
2019-04-10T00:33:45.107Z,9.41
2019-04-10T00:34:45.550Z,9.31
2019-04-10T00:35:44.395Z,9.34
2019-04-10T00:36:44.398Z,9.37
2019-04-10T00:37:44.948Z,9.26
2019-04-10T00:38:44.376Z,9.25
2019-04-10T00:39:44.535Z,9.31
2019-04-10T00:40:44.367Z,9.22
2019-04-10T00:41:44.376Z,9.21
2019-04-10T00:42:45.144Z,9.26
2019-04-10T00:43:44.365Z,9.25
2019-04-10T00:44:44.382Z,9.23
2019-04-10T00:45:44.350Z,9.26
2019-04-10T00:46:44.438Z,9.29
2019-04-10T00:47:44.350Z,9.21
2019-04-10T00:48:44.330Z,9.13
2019-04-10T00:49:44.358Z,9.10
2019-04-10T00:50:44.691Z,9.14
2019-04-10T00:51:44.322Z,9.14
2019-04-10T00:52:44.330Z,9.13
2019-04-10T00:53:45.463Z,9.08
2019-04-10T00:54:44.305Z,9.08
2019-04-10T00:55:44.306Z,9.13
2019-04-10T00:56:45.273Z,9.11
2019-04-10T00:57:44.294Z,9.21
2019-04-10T00:58:44.286Z,9.10
2019-04-10T00:59:44.280Z,9.19
2019-04-10T01:00:45.347Z,9.06
2019-04-10T01:01:44.276Z,9.11
2019-04-10T01:02:44.969Z,9.04
2019-04-10T01:03:45.047Z,9.00
2019-04-10T01:04:44.642Z,9.00
2019-04-10T01:05:44.257Z,8.92
2019-04-10T01:06:44.265Z,9.02
2019-04-10T01:07:45.617Z,8.92
2019-04-10T01:08:44.731Z,8.95
2019-04-10T01:09:44.236Z,9.02
2019-04-10T01:10:44.316Z,8.97
2019-04-10T01:11:44.230Z,9.03
2019-04-10T01:12:44.221Z,9.06
2019-04-10T01:13:45.247Z,8.97
2019-04-10T01:14:44.216Z,9.00
2019-04-10T01:15:44.769Z,9.00
2019-04-10T01:16:44.226Z,8.92
2019-04-10T01:17:44.219Z,9.03
2019-04-10T01:18:44.199Z,8.99
2019-04-10T01:19:44.186Z,9.00
2019-04-10T01:20:44.183Z,8.91
2019-04-10T01:21:44.331Z,8.99
2019-04-10T01:22:44.191Z,9.02
2019-04-10T01:23:44.943Z,9.00
2019-04-10T01:24:44.163Z,9.13
2019-04-10T01:25:44.187Z,9.03
2019-04-10T01:26:44.173Z,8.97
2019-04-10T01:27:44.525Z,8.97
2019-04-10T01:28:45.075Z,9.03
2019-04-10T01:29:44.350Z,9.02
2019-04-10T01:30:44.446Z,8.97
2019-04-10T01:31:44.130Z,8.92
2019-04-10T01:32:44.154Z,8.91
2019-04-10T01:33:45.910Z,8.94
2019-04-10T01:34:44.139Z,8.92
2019-04-10T01:35:44.596Z,8.92
2019-04-10T01:36:44.115Z,8.87
2019-04-10T01:37:51.214Z,8.92
2019-04-10T01:38:44.206Z,8.89
2019-04-10T01:39:44.114Z,8.79
2019-04-10T01:40:44.109Z,8.84
2019-04-10T01:41:44.088Z,8.71
2019-04-10T01:42:44.496Z,8.78
2019-04-10T01:43:44.074Z,8.70
2019-04-10T01:44:44.855Z,8.76
2019-04-10T01:45:44.065Z,8.82
2019-04-10T01:46:44.057Z,8.81
2019-04-10T01:47:44.084Z,8.84
2019-04-10T01:48:44.109Z,8.85
2019-04-10T01:49:44.064Z,8.78
2019-04-10T01:50:44.449Z,8.73
2019-04-10T01:51:44.034Z,8.76
2019-04-10T01:52:44.920Z,8.73
2019-04-10T01:53:44.246Z,8.78
2019-04-10T01:54:45.510Z,8.73
2019-04-10T01:55:44.089Z,8.74
2019-04-10T01:56:44.028Z,8.73
2019-04-10T01:57:44.275Z,8.71
2019-04-10T01:58:44.211Z,8.66
2019-04-10T01:59:44.011Z,8.64
2019-04-10T02:00:43.997Z,8.69
2019-04-10T02:01:44.918Z,8.76
2019-04-10T02:02:44.185Z,8.67
2019-04-10T02:03:44.442Z,8.69
2019-04-10T02:04:44.027Z,8.58
2019-04-10T02:05:44.948Z,8.56
2019-04-10T02:06:44.022Z,8.64
2019-04-10T02:07:44.491Z,8.70
2019-04-10T02:08:43.958Z,8.60
2019-04-10T02:09:43.951Z,8.55
2019-04-10T02:10:44.655Z,8.58
2019-04-10T02:11:43.965Z,8.60
2019-04-10T02:12:45.071Z,8.61
2019-04-10T02:13:44.131Z,8.55
2019-04-10T02:14:44.678Z,8.49
2019-04-10T02:15:44.025Z,8.52
2019-04-10T02:16:43.922Z,8.52
2019-04-10T02:17:44.511Z,8.52
2019-04-10T02:18:43.915Z,8.45
2019-04-10T02:19:44.096Z,8.44
2019-04-10T02:20:43.923Z,8.51
2019-04-10T02:21:44.287Z,8.48
2019-04-10T02:22:43.899Z,8.52
2019-04-10T02:23:44.758Z,8.45
2019-04-10T02:24:43.875Z,8.44
2019-04-10T02:25:43.870Z,8.46
2019-04-10T02:26:44.065Z,8.48
2019-04-10T02:27:44.710Z,8.23
2019-04-10T02:28:44.972Z,8.31
2019-04-10T02:29:44.016Z,8.38
2019-04-10T02:30:43.943Z,8.28
2019-04-10T02:31:44.260Z,8.36
2019-04-10T02:32:47.663Z,8.37
2019-04-10T02:33:43.913Z,8.33
2019-04-10T02:34:46.020Z,8.34
2019-04-10T02:35:45.274Z,8.41
2019-04-10T02:36:44.532Z,8.37
2019-04-10T02:37:43.827Z,8.34
2019-04-10T02:38:59.443Z,8.26
2019-04-10T02:39:47.708Z,8.37
2019-04-10T02:40:45.436Z,8.28
2019-04-10T02:41:44.037Z,8.26
2019-04-10T02:42:45.185Z,8.31
2019-04-10T02:43:45.150Z,8.26
2019-04-10T02:44:44.091Z,8.26
2019-04-10T02:45:44.443Z,8.27
2019-04-10T02:46:45.048Z,8.23
2019-04-10T02:47:44.966Z,8.23
2019-04-10T02:48:43.744Z,8.31
2019-04-10T02:49:44.565Z,8.26
2019-04-10T02:50:44.929Z,8.24
2019-04-10T02:51:45.170Z,8.18
2019-04-10T02:52:45.715Z,8.18
2019-04-10T02:53:43.911Z,8.15
2019-04-10T02:54:43.759Z,8.06
2019-04-10T02:55:43.951Z,8.08
2019-04-10T02:56:45.546Z,8.10
2019-04-10T02:57:44.187Z,8.03
2019-04-10T02:58:44.556Z,7.93
2019-04-10T02:59:45.315Z,7.97
2019-04-10T03:00:44.272Z,7.97
2019-04-10T03:01:44.053Z,7.94
2019-04-10T03:02:45.208Z,7.95
2019-04-10T03:03:44.699Z,8.01
2019-04-10T03:04:44.525Z,8.01
2019-04-10T03:05:44.777Z,8.01
2019-04-10T03:06:45.082Z,8.00
2019-04-10T03:07:44.309Z,7.98
2019-04-10T03:09:00.740Z,7.94
2019-04-10T03:09:56.305Z,8.00
2019-04-10T03:10:49.610Z,8.01
2019-04-10T03:11:43.950Z,7.97
2019-04-10T03:12:44.220Z,8.01
2019-04-10T03:13:45.086Z,7.90
2019-04-10T03:14:45.977Z,7.90
2019-04-10T03:15:43.915Z,7.90
2019-04-10T03:16:43.805Z,8.01
2019-04-10T03:17:44.096Z,7.90
2019-04-10T03:18:43.587Z,7.93
2019-04-10T03:19:43.606Z,7.88
2019-04-10T03:20:44.680Z,7.88
2019-04-10T03:21:43.564Z,7.72
2019-04-10T03:22:43.556Z,7.76
2019-04-10T03:23:43.760Z,7.70
2019-04-10T03:24:44.391Z,7.75
2019-04-10T03:25:43.557Z,7.80
2019-04-10T03:26:43.814Z,7.75
2019-04-10T03:27:43.535Z,7.72
2019-04-10T03:28:43.528Z,7.73
2019-04-10T03:29:44.854Z,7.63
2019-04-10T03:30:44.346Z,7.67
2019-04-10T03:31:45.102Z,7.67
2019-04-10T03:32:50.271Z,7.60
2019-04-10T03:33:47.304Z,7.63
2019-04-10T03:34:46.098Z,7.60
2019-04-10T03:35:43.485Z,7.50
2019-04-10T03:36:43.509Z,7.54
2019-04-10T03:37:44.563Z,7.56
2019-04-10T03:38:55.479Z,7.48
2019-04-10T03:39:43.745Z,7.50
2019-04-10T03:40:43.727Z,7.47
2019-04-10T03:41:44.318Z,7.42
2019-04-10T03:42:43.444Z,7.43
2019-04-10T03:43:43.782Z,7.32
2019-04-10T03:44:43.429Z,7.38
2019-04-10T03:45:44.416Z,7.32
2019-04-10T03:46:43.423Z,7.33
2019-04-10T03:47:43.902Z,7.36
2019-04-10T03:48:43.417Z,7.31
2019-04-10T03:49:44.301Z,7.28
2019-04-10T03:50:43.706Z,7.24
2019-04-10T03:51:43.388Z,7.25
2019-04-10T03:52:43.393Z,7.23
2019-04-10T03:53:44.493Z,7.25
2019-04-10T03:54:43.963Z,7.25
2019-04-10T03:55:43.367Z,7.23
2019-04-10T03:56:43.569Z,7.24
2019-04-10T03:57:43.353Z,7.25
2019-04-10T03:58:43.946Z,7.23
2019-04-10T03:59:43.547Z,7.24
2019-04-10T04:00:43.337Z,7.18
2019-04-10T04:01:43.336Z,7.18
2019-04-10T04:02:44.171Z,7.21
2019-04-10T04:03:43.318Z,7.07
2019-04-10T04:04:43.894Z,7.07
2019-04-10T04:05:43.307Z,7.17
2019-04-10T04:06:43.995Z,7.05
2019-04-10T04:07:43.319Z,7.05
2019-04-10T04:08:43.693Z,7.13
2019-04-10T04:09:43.974Z,7.13
2019-04-10T04:10:43.271Z,7.10
2019-04-10T04:11:44.015Z,7.07
2019-04-10T04:12:43.261Z,7.17
2019-04-10T04:13:43.802Z,7.06
2019-04-10T04:14:44.103Z,7.14
2019-04-10T04:15:44.328Z,7.13
2019-04-10T04:16:43.631Z,7.06
2019-04-10T04:17:44.209Z,7.07
2019-04-10T04:18:43.549Z,7.11
2019-04-10T04:19:43.229Z,7.10
2019-04-10T04:20:43.422Z,6.99
2019-04-10T04:21:43.957Z,6.92
2019-04-10T04:22:43.214Z,6.93
2019-04-10T04:23:43.215Z,6.87
2019-04-10T04:24:44.042Z,6.92
2019-04-10T04:25:43.184Z,6.82
2019-04-10T04:26:43.611Z,6.85
2019-04-10T04:27:44.202Z,6.79
2019-04-10T04:28:43.999Z,6.79
2019-04-10T04:29:43.412Z,6.81
2019-04-10T04:30:43.153Z,6.81
2019-04-10T04:31:44.090Z,6.87
2019-04-10T04:32:44.092Z,6.88
2019-04-10T04:33:43.169Z,6.84
2019-04-10T04:34:43.348Z,6.87
2019-04-10T04:35:43.146Z,6.84
2019-04-10T04:36:43.160Z,6.82
2019-04-10T04:37:44.233Z,6.87
2019-04-10T04:38:43.228Z,6.82
2019-04-10T04:39:43.359Z,6.84
2019-04-10T04:40:44.162Z,6.85
2019-04-10T04:41:43.085Z,6.74
2019-04-10T04:42:43.077Z,6.77
2019-04-10T04:43:44.707Z,6.78
2019-04-10T04:44:43.174Z,6.78
2019-04-10T04:45:44.209Z,6.74
2019-04-10T04:46:43.049Z,6.74
2019-04-10T04:47:43.342Z,6.77
2019-04-10T04:48:43.347Z,6.74
2019-04-10T04:49:43.031Z,6.74
2019-04-10T04:50:43.570Z,6.82
2019-04-10T04:51:43.757Z,6.82
2019-04-10T04:52:43.521Z,6.84
2019-04-10T04:53:44.079Z,6.78
2019-04-10T04:54:43.537Z,6.79
2019-04-10T04:55:42.987Z,6.77
2019-04-10T04:56:44.159Z,6.69
2019-04-10T04:57:42.973Z,6.69
2019-04-10T04:58:43.510Z,6.63
2019-04-10T04:59:43.169Z,6.63
2019-04-10T05:00:43.162Z,6.54
2019-04-10T05:01:43.153Z,6.54
2019-04-10T05:02:43.149Z,6.62
2019-04-10T05:03:42.975Z,6.59
2019-04-10T05:04:43.810Z,6.63
2019-04-10T05:05:43.336Z,6.63
2019-04-10T05:06:43.714Z,6.69
2019-04-10T05:07:54.119Z,6.63
2019-04-10T05:08:43.182Z,6.56
2019-04-10T05:09:43.963Z,6.60
2019-04-10T05:10:42.890Z,6.64
2019-04-10T05:11:42.895Z,6.70
2019-04-10T05:12:43.626Z,6.60
2019-04-10T05:13:43.081Z,6.59
2019-04-10T05:14:43.976Z,6.59
2019-04-10T05:15:42.868Z,6.59
2019-04-10T05:16:43.655Z,6.57
2019-04-10T05:17:42.845Z,6.67
2019-04-10T05:18:43.574Z,6.57
2019-04-10T05:19:42.836Z,6.52
2019-04-10T05:20:47.263Z,6.54
2019-04-10T05:21:43.634Z,6.56
2019-04-10T05:22:43.641Z,6.67
2019-04-10T05:23:42.895Z,6.64
2019-04-10T05:24:42.802Z,6.60
2019-04-10T05:25:43.428Z,6.62
2019-04-10T05:26:42.869Z,6.51
2019-04-10T05:27:43.429Z,6.54
2019-04-10T05:28:42.777Z,6.63
2019-04-10T05:29:43.115Z,6.62
2019-04-10T05:30:43.107Z,6.51
2019-04-10T05:31:42.757Z,6.57
2019-04-10T05:32:43.726Z,6.52
2019-04-10T05:33:42.943Z,6.56
2019-04-10T05:34:43.358Z,6.48
2019-04-10T05:35:43.752Z,6.62
2019-04-10T05:36:42.724Z,6.54
2019-04-10T05:37:43.531Z,6.57
2019-04-10T05:38:42.753Z,6.49
2019-04-10T05:39:47.835Z,6.48
2019-04-10T05:40:42.706Z,6.56
2019-04-10T05:41:43.843Z,6.57
2019-04-10T05:42:42.687Z,6.60
2019-04-10T05:43:42.681Z,6.60
2019-04-10T05:44:42.687Z,6.60
2019-04-10T05:45:42.673Z,6.60
2019-04-10T05:46:43.025Z,6.46
2019-04-10T05:47:42.663Z,6.46
2019-04-10T05:48:43.810Z,6.48
2019-04-10T05:49:42.855Z,6.49
2019-04-10T05:50:52.957Z,6.46
2019-04-10T05:51:43.632Z,6.51
2019-04-10T05:52:43.020Z,6.46
2019-04-10T05:53:43.040Z,6.48
2019-04-10T05:54:43.791Z,6.45
2019-04-10T05:55:42.603Z,6.44
2019-04-10T05:56:42.801Z,6.48
2019-04-10T05:57:42.703Z,6.51
2019-04-10T05:58:42.867Z,6.57
2019-04-10T05:59:42.576Z,6.59
2019-04-10T06:00:43.054Z,6.60
2019-04-10T06:01:44.151Z,6.46
2019-04-10T06:02:43.804Z,6.52
2019-04-10T06:03:42.890Z,6.45
2019-04-10T06:04:43.316Z,6.46
2019-04-10T06:05:42.554Z,6.51
2019-04-10T06:06:42.545Z,6.42
2019-04-10T06:07:43.513Z,6.48
2019-04-10T06:08:43.497Z,6.49
2019-04-10T06:09:54.059Z,6.44
2019-04-10T06:10:43.572Z,6.45
2019-04-10T06:11:44.092Z,6.41
2019-04-10T06:12:42.728Z,6.51
2019-04-10T06:13:42.983Z,6.62
2019-04-10T06:14:42.478Z,6.57
2019-04-10T06:15:43.387Z,6.63
2019-04-10T06:16:42.693Z,6.56
2019-04-10T06:17:42.841Z,6.62
2019-04-10T06:18:43.054Z,6.72
2019-04-10T06:19:42.738Z,6.78
2019-04-10T06:20:42.438Z,6.74
2019-04-10T06:21:42.454Z,6.75
2019-04-10T06:22:43.821Z,6.77
2019-04-10T06:23:43.398Z,6.82
2019-04-10T06:24:42.566Z,6.84
2019-04-10T06:25:43.545Z,6.75
2019-04-10T06:26:43.481Z,6.77
2019-04-10T06:27:42.973Z,6.74
2019-04-10T06:28:42.388Z,6.74
2019-04-10T06:29:44.571Z,6.74
2019-04-10T06:30:42.369Z,6.82
2019-04-10T06:31:42.989Z,6.84
2019-04-10T06:32:43.217Z,6.84
2019-04-10T06:33:42.572Z,6.87
2019-04-10T06:34:42.617Z,6.87
2019-04-10T06:35:42.693Z,6.95
2019-04-10T06:36:43.725Z,6.93
2019-04-10T06:37:42.327Z,7.06
2019-04-10T06:38:43.325Z,7.05
2019-04-10T06:39:44.507Z,7.07
2019-04-10T06:40:42.306Z,7.07
2019-04-10T06:41:43.160Z,7.11
2019-04-10T06:42:47.513Z,7.23
2019-04-10T06:43:43.356Z,7.32
2019-04-10T06:44:42.293Z,7.36
2019-04-10T06:45:42.484Z,7.54
2019-04-10T06:46:42.302Z,7.50
2019-04-10T06:47:42.545Z,7.53
2019-04-10T06:48:42.477Z,7.43
2019-04-10T06:49:42.247Z,7.51
2019-04-10T06:50:43.224Z,7.57
2019-04-10T06:51:42.974Z,7.70
2019-04-10T06:52:42.986Z,7.61
2019-04-10T06:53:42.225Z,7.67
2019-04-10T06:54:42.234Z,7.76
2019-04-10T06:55:42.660Z,7.75
2019-04-10T06:56:43.043Z,7.83
2019-04-10T06:57:50.987Z,7.97
2019-04-10T06:58:42.458Z,8.12
2019-04-10T06:59:42.423Z,8.09
2019-04-10T07:00:45.585Z,8.24
2019-04-10T07:01:50.122Z,8.19
2019-04-10T07:02:42.374Z,8.13
2019-04-10T07:03:53.788Z,8.24
2019-04-10T07:04:48.318Z,8.24
2019-04-10T07:05:57.635Z,8.10
2019-04-10T07:06:52.833Z,8.23
2019-04-10T07:07:50.677Z,8.51
2019-04-10T07:08:45.461Z,8.73
2019-04-10T07:09:42.265Z,8.92
2019-04-10T07:10:52.046Z,8.82
2019-04-10T07:11:42.878Z,9.18
2019-04-10T07:12:42.114Z,9.31
2019-04-10T07:13:43.004Z,9.10
2019-04-10T07:14:45.524Z,9.16
2019-04-10T07:15:43.932Z,9.29
2019-04-10T07:16:42.272Z,9.48
2019-04-10T07:17:43.181Z,9.36
2019-04-10T07:18:45.884Z,9.11
2019-04-10T07:19:43.998Z,8.85
2019-04-10T07:20:42.203Z,8.87
2019-04-10T07:21:42.685Z,8.48
2019-04-10T07:22:46.481Z,8.46
2019-04-10T07:23:42.848Z,8.79
2019-04-10T07:24:42.574Z,9.11
2019-04-10T07:25:44.573Z,9.46
2019-04-10T07:26:45.977Z,9.76
2019-04-10T07:27:42.036Z,9.95
2019-04-10T07:28:45.680Z,9.76
2019-04-10T07:29:42.573Z,9.41
2019-04-10T07:30:42.023Z,9.44
2019-04-10T07:31:42.498Z,9.59
2019-04-10T07:32:45.681Z,9.50
2019-04-10T07:33:42.586Z,9.61
2019-04-10T07:34:42.499Z,9.59
2019-04-10T07:35:42.296Z,9.26
2019-04-10T07:36:43.562Z,9.19
2019-04-10T07:37:42.501Z,9.19
2019-04-10T07:38:41.966Z,8.92
2019-04-10T07:39:44.669Z,8.88
2019-04-10T07:40:42.909Z,8.81
2019-04-10T07:41:41.983Z,8.88
2019-04-10T07:42:43.285Z,8.88
2019-04-10T07:43:42.613Z,9.04
2019-04-10T07:44:42.138Z,9.28
2019-04-10T07:45:41.939Z,9.25
2019-04-10T07:46:42.390Z,9.36
2019-04-10T07:47:42.075Z,9.59
2019-04-10T07:48:42.119Z,9.69
2019-04-10T07:49:42.113Z,9.46
2019-04-10T07:50:44.515Z,9.25
2019-04-10T07:51:42.520Z,9.11
2019-04-10T07:52:41.902Z,9.11
2019-04-10T07:53:41.902Z,8.95
2019-04-10T07:54:44.367Z,8.82
2019-04-10T07:55:45.948Z,8.70
2019-04-10T07:56:41.892Z,8.82
2019-04-10T07:57:44.703Z,9.02
2019-04-10T07:58:41.940Z,9.16
2019-04-10T07:59:41.873Z,9.46
2019-04-10T08:00:42.911Z,9.73
2019-04-10T08:01:42.140Z,9.94
2019-04-10T08:02:42.762Z,9.97
2019-04-10T08:03:41.838Z,10.16
2019-04-10T08:04:41.823Z,10.10
2019-04-10T08:05:41.906Z,9.91
2019-04-10T08:06:42.441Z,9.73
2019-04-10T08:07:42.968Z,9.74
2019-04-10T08:08:42.605Z,9.59
2019-04-10T08:09:43.004Z,9.86
2019-04-10T08:10:43.678Z,9.89
2019-04-10T08:11:42.546Z,9.95
2019-04-10T08:12:47.718Z,9.66
2019-04-10T08:13:41.792Z,9.59
2019-04-10T08:14:42.071Z,9.47
2019-04-10T08:15:41.774Z,9.39
2019-04-10T08:16:41.770Z,9.25
2019-04-10T08:17:41.794Z,9.34
2019-04-10T08:18:41.756Z,9.26
2019-04-10T08:19:41.750Z,9.47
2019-04-10T08:20:42.519Z,9.44
2019-04-10T08:21:42.365Z,9.41
2019-04-10T08:22:42.756Z,9.55
2019-04-10T08:23:42.360Z,9.94
2019-04-10T08:24:42.678Z,10.37
2019-04-10T08:25:41.725Z,10.53
2019-04-10T08:26:41.718Z,10.74
2019-04-10T08:27:41.836Z,10.64
2019-04-10T08:28:41.719Z,10.86
2019-04-10T08:29:42.768Z,11.04
2019-04-10T08:30:41.978Z,11.08
2019-04-10T08:31:41.699Z,10.76
2019-04-10T08:32:54.127Z,11.11
2019-04-10T08:33:42.005Z,11.07
2019-04-10T08:34:42.107Z,11.62
2019-04-10T08:35:41.923Z,11.87
2019-04-10T08:36:41.671Z,11.86
2019-04-10T08:37:41.680Z,11.44
2019-04-10T08:38:42.142Z,11.10
2019-04-10T08:39:46.008Z,10.25
2019-04-10T08:40:41.651Z,10.07
2019-04-10T08:41:41.681Z,9.97
2019-04-10T08:42:45.800Z,9.95
2019-04-10T08:43:41.752Z,9.80
2019-04-10T08:44:42.453Z,9.95
2019-04-10T08:45:48.117Z,9.94
2019-04-10T08:46:41.984Z,10.26
2019-04-10T08:47:42.155Z,10.48
2019-04-10T08:48:41.621Z,10.22
2019-04-10T08:49:41.612Z,10.30
2019-04-10T08:50:41.946Z,10.41
2019-04-10T08:51:41.672Z,10.94
2019-04-10T08:52:41.603Z,11.22
2019-04-10T08:53:42.443Z,11.17
2019-04-10T08:54:42.566Z,11.32
2019-04-10T08:55:42.081Z,11.10
2019-04-10T08:56:42.756Z,11.59
2019-04-10T08:57:41.755Z,11.95
2019-04-10T08:58:41.574Z,12.31
2019-04-10T08:59:44.122Z,12.42
2019-04-10T09:00:42.747Z,12.27
2019-04-10T09:01:41.811Z,12.35
2019-04-10T09:02:42.335Z,12.32
2019-04-10T09:03:41.539Z,11.66
2019-04-10T09:04:41.736Z,11.48
2019-04-10T09:05:42.686Z,10.92
2019-04-10T09:06:41.825Z,10.84
2019-04-10T09:07:41.524Z,10.44
2019-04-10T09:08:42.178Z,10.28
2019-04-10T09:09:41.626Z,10.15
2019-04-10T09:10:42.707Z,10.05
2019-04-10T09:11:41.520Z,10.10
2019-04-10T09:12:41.496Z,10.16
2019-04-10T09:13:41.498Z,9.97
2019-04-10T09:14:41.502Z,10.10
2019-04-10T09:15:42.355Z,10.05
2019-04-10T09:16:42.674Z,10.15
2019-04-10T09:17:41.750Z,10.31
2019-04-10T09:18:41.460Z,10.19
2019-04-10T09:19:42.296Z,10.17
2019-04-10T09:20:42.703Z,10.17
2019-04-10T09:21:41.730Z,10.22
2019-04-10T09:22:57.940Z,10.53
2019-04-10T09:23:47.319Z,10.64
2019-04-10T09:24:42.436Z,10.84
2019-04-10T09:25:41.621Z,10.84
2019-04-10T09:26:41.413Z,10.81
2019-04-10T09:27:42.751Z,10.61
2019-04-10T09:28:42.428Z,10.40
2019-04-10T09:29:42.423Z,10.42
2019-04-10T09:30:41.391Z,10.35
2019-04-10T09:31:41.926Z,10.33
2019-04-10T09:32:42.396Z,10.33
2019-04-10T09:33:41.374Z,10.44
2019-04-10T09:34:42.204Z,10.41
2019-04-10T09:35:41.484Z,10.30
2019-04-10T09:36:41.751Z,10.31
2019-04-10T09:37:42.083Z,10.33
2019-04-10T09:38:41.379Z,10.33
2019-04-10T09:39:41.352Z,10.31
2019-04-10T09:40:42.482Z,10.35
2019-04-10T09:41:41.877Z,10.23
2019-04-10T09:42:41.754Z,10.51
2019-04-10T09:43:42.128Z,10.38
2019-04-10T09:44:41.310Z,10.48
2019-04-10T09:45:41.622Z,10.46
2019-04-10T09:46:41.308Z,10.33
2019-04-10T09:47:41.743Z,10.34
2019-04-10T09:48:42.136Z,10.51
2019-04-10T09:49:45.817Z,10.82
2019-04-10T09:50:41.861Z,10.84
2019-04-10T09:51:42.391Z,10.72
2019-04-10T09:52:41.278Z,10.78
2019-04-10T09:53:41.493Z,10.69
2019-04-10T09:54:42.468Z,10.64
2019-04-10T09:55:41.249Z,10.97
2019-04-10T09:56:41.979Z,11.30
2019-04-10T09:57:41.446Z,11.63
2019-04-10T09:58:41.234Z,11.75
2019-04-10T09:59:41.377Z,11.77
2019-04-10T10:00:41.223Z,11.59
2019-04-10T10:01:42.219Z,11.11
2019-04-10T10:02:41.214Z,11.33
2019-04-10T10:03:42.147Z,11.44
2019-04-10T10:04:41.766Z,11.75
2019-04-10T10:05:41.205Z,11.90
2019-04-10T10:06:41.187Z,12.02
2019-04-10T10:07:41.200Z,12.00
2019-04-10T10:09:41.200Z,11.73
2019-04-10T10:10:41.650Z,11.78
2019-04-10T10:11:41.166Z,11.66
2019-04-10T10:12:41.175Z,11.43
2019-04-10T10:13:41.503Z,11.37
2019-04-10T10:14:42.163Z,11.17
2019-04-10T10:15:41.173Z,11.17
2019-04-10T10:16:42.220Z,11.17
2019-04-10T10:17:41.292Z,11.14
2019-04-10T10:18:41.577Z,10.90
2019-04-10T10:19:41.124Z,10.87
2019-04-10T10:20:41.120Z,10.89
2019-04-10T10:21:41.111Z,10.93
2019-04-10T10:22:41.254Z,10.97
2019-04-10T10:23:43.012Z,10.94
2019-04-10T10:24:41.111Z,11.05
2019-04-10T10:25:41.526Z,10.97
2019-04-10T10:26:43.327Z,10.92
2019-04-10T10:27:41.084Z,11.26
2019-04-10T10:28:41.081Z,11.52
2019-04-10T10:29:41.925Z,11.59
2019-04-10T10:30:41.833Z,11.69
2019-04-10T10:31:41.286Z,12.00
2019-04-10T10:32:42.111Z,12.00
2019-04-10T10:33:41.746Z,12.00
2019-04-10T10:34:41.063Z,12.04
2019-04-10T10:35:41.215Z,12.28
2019-04-10T10:36:44.478Z,12.37
2019-04-10T10:37:41.102Z,12.55
2019-04-10T10:38:41.169Z,12.40
2019-04-10T10:39:41.200Z,12.24
2019-04-10T10:40:41.471Z,11.90
2019-04-10T10:41:41.023Z,11.80
2019-04-10T10:42:41.522Z,11.69
2019-04-10T10:43:41.002Z,11.57
2019-04-10T10:44:40.988Z,11.57
2019-04-10T10:45:40.991Z,11.70
2019-04-10T10:46:41.833Z,11.91
2019-04-10T10:47:41.204Z,12.12
2019-04-10T10:48:42.015Z,11.99
2019-04-10T10:49:40.998Z,12.07
2019-04-10T10:50:41.593Z,12.09
2019-04-10T10:51:40.981Z,11.99
2019-04-10T10:52:41.709Z,12.00
2019-04-10T10:53:41.146Z,12.21
2019-04-10T10:54:41.117Z,12.27
2019-04-10T10:55:41.858Z,12.21
2019-04-10T10:56:41.138Z,12.07
2019-04-10T10:57:41.564Z,11.99
2019-04-10T10:58:40.928Z,11.86
2019-04-10T10:59:41.867Z,11.86
2019-04-10T11:00:41.167Z,11.83
2019-04-10T11:01:41.852Z,11.88
2019-04-10T11:02:41.507Z,11.84
2019-04-10T11:03:40.897Z,11.83
2019-04-10T11:04:41.103Z,11.86
2019-04-10T11:05:40.896Z,11.77
2019-04-10T11:06:51.769Z,11.78
2019-04-10T11:07:40.914Z,11.84
2019-04-10T11:08:41.765Z,12.13
2019-04-10T11:09:41.916Z,12.55
2019-04-10T11:10:41.360Z,12.53
2019-04-10T11:11:41.001Z,12.50
2019-04-10T11:12:42.262Z,12.64
2019-04-10T11:13:40.963Z,12.67
2019-04-10T11:14:40.842Z,12.62
2019-04-10T11:15:45.185Z,12.36
2019-04-10T11:16:41.087Z,12.42
2019-04-10T11:17:41.855Z,12.36
2019-04-10T11:18:40.831Z,12.29
2019-04-10T11:19:41.248Z,12.57
2019-04-10T11:20:41.789Z,12.64
2019-04-10T11:21:40.822Z,12.79
2019-04-10T11:22:42.382Z,12.62
2019-04-10T11:23:42.178Z,12.62
2019-04-10T11:24:42.743Z,12.50
2019-04-10T11:25:40.810Z,12.25
2019-04-10T11:26:42.643Z,12.39
2019-04-10T11:27:42.062Z,12.39
2019-04-10T11:28:41.889Z,12.45
2019-04-10T11:29:40.789Z,12.36
2019-04-10T11:30:41.207Z,12.53
2019-04-10T11:31:41.726Z,12.93
2019-04-10T11:32:42.195Z,12.97
2019-04-10T11:33:41.234Z,12.93
2019-04-10T11:34:40.866Z,12.86
2019-04-10T11:35:41.426Z,12.93
2019-04-10T11:36:42.538Z,12.70
2019-04-10T11:37:44.754Z,12.60
2019-04-10T11:38:42.906Z,12.28
2019-04-10T11:39:43.558Z,12.22
2019-04-10T11:40:41.421Z,12.17
2019-04-10T11:41:41.359Z,12.17
2019-04-10T11:42:42.768Z,12.12
2019-04-10T11:43:41.621Z,12.17
2019-04-10T11:44:42.517Z,12.22
2019-04-10T11:45:45.451Z,12.07
2019-04-10T11:46:41.889Z,12.02
2019-04-10T11:47:40.707Z,12.03
2019-04-10T11:48:44.716Z,12.00
2019-04-10T11:49:43.377Z,12.06
2019-04-10T11:50:43.898Z,12.22
2019-04-10T11:51:41.082Z,12.29
2019-04-10T11:52:48.015Z,12.53
2019-04-10T11:53:44.475Z,12.64
2019-04-10T11:54:41.602Z,12.61
2019-04-10T11:55:46.684Z,12.64
2019-04-10T11:56:42.663Z,12.79
2019-04-10T11:57:41.972Z,12.64
2019-04-10T11:58:50.687Z,12.64
2019-04-10T11:59:41.120Z,12.46
2019-04-10T12:00:47.616Z,12.18
2019-04-10T12:01:40.629Z,12.27
2019-04-10T12:02:43.859Z,12.24
2019-04-10T12:03:45.139Z,12.28
2019-04-10T12:04:48.117Z,12.32
2019-04-10T12:05:42.020Z,12.40
2019-04-10T12:06:40.664Z,12.29
2019-04-10T12:08:23.479Z,12.17
2019-04-10T12:09:04.222Z,12.09
2019-04-10T12:11:41.545Z,12.12
2019-04-10T12:12:41.640Z,12.27
2019-04-10T12:13:40.811Z,12.10
2019-04-10T12:14:40.574Z,12.10
2019-04-10T12:15:40.717Z,12.06
2019-04-10T12:16:41.038Z,12.13
2019-04-10T12:17:40.554Z,11.97
2019-04-10T12:18:40.626Z,12.03
2019-04-10T12:19:40.580Z,12.04
2019-04-10T12:20:41.009Z,12.06
2019-04-10T12:21:40.547Z,12.09
2019-04-10T12:22:40.792Z,12.12
2019-04-10T12:23:40.954Z,12.06
2019-04-10T12:24:40.728Z,12.10
2019-04-10T12:25:40.881Z,12.13
2019-04-10T12:26:40.539Z,12.12
2019-04-10T12:27:41.155Z,12.18
2019-04-10T12:28:40.517Z,12.20
2019-04-10T12:29:40.581Z,12.24
2019-04-10T12:30:41.686Z,12.20
2019-04-10T12:31:40.485Z,12.27
2019-04-10T12:32:41.067Z,12.18
2019-04-10T12:33:40.678Z,12.21
2019-04-10T12:34:40.474Z,12.21
2019-04-10T12:35:40.491Z,12.29
2019-04-10T12:36:40.628Z,12.43
2019-04-10T12:37:41.228Z,12.36
2019-04-10T12:38:41.259Z,12.37
2019-04-10T12:39:41.232Z,12.43
2019-04-10T12:40:40.635Z,12.65
2019-04-10T12:41:41.545Z,12.90
2019-04-10T12:42:40.703Z,12.86
2019-04-10T12:43:41.073Z,12.85
2019-04-10T12:44:40.916Z,12.65
2019-04-10T12:45:40.445Z,12.80
2019-04-10T12:46:41.533Z,12.70
2019-04-10T12:47:40.414Z,12.65
2019-04-10T12:48:41.072Z,12.62
2019-04-10T12:49:41.292Z,12.83
2019-04-10T12:50:41.293Z,12.78
2019-04-10T12:51:41.481Z,12.80
2019-04-10T12:52:40.902Z,12.75
2019-04-10T12:53:40.419Z,12.64
2019-04-10T12:54:40.571Z,12.61
2019-04-10T12:55:40.374Z,12.65
2019-04-10T12:56:40.579Z,12.54
2019-04-10T12:57:41.352Z,12.50
2019-04-10T12:58:40.372Z,12.62
2019-04-10T12:59:41.639Z,12.67
2019-04-10T13:00:41.519Z,12.65
2019-04-10T13:01:40.783Z,12.64
2019-04-10T13:02:40.785Z,12.40
2019-04-10T13:03:41.131Z,12.40
2019-04-10T13:04:40.725Z,12.36
2019-04-10T13:05:41.118Z,12.50
2019-04-10T13:06:40.334Z,12.37
2019-04-10T13:07:40.318Z,12.55
2019-04-10T13:08:57.027Z,12.60
2019-04-10T13:09:40.329Z,12.45
2019-04-10T13:10:40.315Z,12.61
2019-04-10T13:11:40.649Z,12.53
2019-04-10T13:12:40.319Z,12.57